Time;durP1;ratioP1;P1;durP2;ratioP2;P2;SDS_P1;SDS_P2;PMS_P1;PMS_P2;Temp;Humidity;BMP_temperature;BMP_pressure;BME280_temperature;BME280_humidity;BME280_pressure;Samples;Min_cycle;Max_cycle;Signal;HPM_P1;HPM_P2
2023/04/06 00:00:21;;;;;;;7.90;3.17;;;;;;;;;;1035481;28;20137;-21
2023/04/06 00:00:52;;;;;;;2.15;1.20;;;;;;;;;;1035427;28;20041;-24
2023/04/06 00:01:22;;;;;;;4.40;2.28;;;;;;;;;;1035647;28;20136;-23
2023/04/06 00:01:53;;;;;;;5.90;3.15;;;;;;;;;;1035402;28;20032;-23
2023/04/06 00:02:23;;;;;;;4.85;2.33;;;;;;;;;;1035604;28;20132;-24
2023/04/06 00:02:54;;;;;;;20.15;4.38;;;;;;;;;;1034859;28;20022;-23
2023/04/06 00:03:24;;;;;;;33.47;3.22;;;;;;;;;;1035243;28;20026;-25
2023/04/06 00:03:55;;;;;;;2.90;1.50;;;;;;;;;;1035464;28;20018;-24
2023/04/06 00:04:26;;;;;;;4.65;2.92;;;;;;;;;;1035560;28;20061;-21
2023/04/06 00:04:56;;;;;;;2.60;2.40;;;;;;;;;;1035437;28;20049;-24
2023/04/06 00:05:30;;;;;;;6.15;3.28;;;;;;;;;;1035567;28;20029;-24
2023/04/06 00:06:00;;;;;;;3.47;1.75;;;;;;;;;;1035589;28;20018;-24
2023/04/06 00:06:31;;;;;;;6.55;1.77;;;;;;;;;;1035401;28;20017;-23
2023/04/06 00:07:02;;;;;;;5.95;3.15;;;;;;;;;;1035745;28;20076;-24
2023/04/06 00:07:33;;;;;;;3.00;2.17;;;;;;;;;;1035418;28;20018;-24
2023/04/06 00:08:04;;;;;;;9.13;2.85;;;;;;;;;;1035456;28;20040;-24
2023/04/06 00:08:34;;;;;;;12.25;5.70;;;;;;;;;;1035388;28;20037;-24
2023/04/06 00:09:05;;;;;;;13.48;2.67;;;;;;;;;;1035617;28;20099;-22
2023/04/06 00:09:36;;;;;;;15.70;2.63;;;;;;;;;;1035447;28;20502;-23
2023/04/06 00:10:06;;;;;;;4.60;1.58;;;;;;;;;;1035243;28;20036;-23
2023/04/06 00:10:37;;;;;;;2.90;1.98;;;;;;;;;;1034801;28;20033;-24
2023/04/06 00:11:08;;;;;;;7.60;2.15;;;;;;;;;;1035695;28;20029;-22
2023/04/06 00:11:38;;;;;;;21.92;2.97;;;;;;;;;;1035529;28;20080;-23
2023/04/06 00:12:09;;;;;;;16.52;2.80;;;;;;;;;;1035207;28;20477;-22
2023/04/06 00:12:39;;;;;;;5.85;2.75;;;;;;;;;;1035467;28;20022;-24
2023/04/06 00:13:10;;;;;;;6.25;3.35;;;;;;;;;;1035579;28;20114;-22
2023/04/06 00:15:49;;;;;;;3.95;2.20;;;;;;;;;;1042248;26;20015;-73
2023/04/06 00:16:20;;;;;;;5.95;1.75;;;;;;;;;;1048002;28;20024;-73
2023/04/06 00:16:50;;;;;;;13.15;2.85;;;;;;;;;;1047894;28;20029;-74
2023/04/06 00:17:21;;;;;;;5.65;2.20;;;;;;;;;;1047899;28;20059;-74
2023/04/06 00:17:52;;;;;;;3.85;1.95;;;;;;;;;;1047839;28;20032;-74
2023/04/06 00:18:22;;;;;;;6.07;4.38;;;;;;;;;;1047976;28;20492;-73
2023/04/06 00:18:53;;;;;;;8.52;4.15;;;;;;;;;;1047881;28;20028;-73
2023/04/06 00:19:23;;;;;;;13.02;3.05;;;;;;;;;;1047976;28;20017;-73
2023/04/06 00:19:54;;;;;;;3.33;2.10;;;;;;;;;;1047816;28;20020;-73
2023/04/06 00:20:25;;;;;;;6.45;2.90;;;;;;;;;;1047943;28;20103;-73
2023/04/06 00:20:55;;;;;;;1.92;1.83;;;;;;;;;;1047362;28;20025;-73
2023/04/06 00:21:26;;;;;;;2.40;1.85;;;;;;;;;;1048018;28;20023;-73
2023/04/06 00:21:57;;;;;;;7.40;3.72;;;;;;;;;;1047879;28;20048;-73
2023/04/06 00:22:27;;;;;;;3.08;2.40;;;;;;;;;;1048035;28;20017;-75
2023/04/06 00:22:58;;;;;;;2.35;1.80;;;;;;;;;;1047566;28;20822;-74
2023/04/06 00:23:28;;;;;;;10.38;3.92;;;;;;;;;;1045970;28;20021;-74
2023/04/06 00:23:59;;;;;;;16.45;1.50;;;;;;;;;;1045422;28;20020;-73
2023/04/06 00:24:29;;;;;;;13.68;2.63;;;;;;;;;;1045410;28;20035;-73
2023/04/06 00:25:00;;;;;;;5.30;2.35;;;;;;;;;;1043718;28;20116;-73
2023/04/06 00:25:30;;;;;;;10.73;1.63;;;;;;;;;;1043267;28;20404;-74
2023/04/06 00:26:01;;;;;;;18.90;3.00;;;;;;;;;;1038304;28;20053;-74
2023/04/06 00:26:32;;;;;;;4.50;1.85;;;;;;;;;;1038089;28;20029;-74
2023/04/06 00:27:02;;;;;;;6.28;2.50;;;;;;;;;;1039293;28;20389;-74
2023/04/06 00:27:33;;;;;;;9.00;1.88;;;;;;;;;;1043137;28;20020;-73
2023/04/06 00:28:03;;;;;;;5.00;1.70;;;;;;;;;;1047727;28;20020;-73
2023/04/06 00:28:34;;;;;;;2.55;1.38;;;;;;;;;;1041835;28;20469;-74
2023/04/06 00:29:04;;;;;;;6.82;2.90;;;;;;;;;;1038091;28;20032;-74
2023/04/06 00:29:35;;;;;;;3.50;3.05;;;;;;;;;;1036926;28;20079;-73
2023/04/06 00:30:06;;;;;;;5.57;2.30;;;;;;;;;;1037581;28;20112;-74
2023/04/06 00:30:36;;;;;;;7.03;2.55;;;;;;;;;;1038838;28;20473;-74
2023/04/06 00:31:07;;;;;;;1.98;1.75;;;;;;;;;;1039568;28;20032;-74
2023/04/06 00:31:37;;;;;;;16.77;3.83;;;;;;;;;;1043372;28;20432;-74
2023/04/06 00:32:08;;;;;;;6.07;2.97;;;;;;;;;;1043384;28;20056;-74
2023/04/06 00:32:39;;;;;;;2.45;1.88;;;;;;;;;;1047721;28;20020;-76
2023/04/06 00:33:09;;;;;;;1.80;1.05;;;;;;;;;;1047523;28;20035;-74
2023/04/06 00:33:40;;;;;;;31.73;2.30;;;;;;;;;;1047560;28;20031;-73
2023/04/06 00:34:11;;;;;;;11.68;1.42;;;;;;;;;;1047960;28;20024;-74
2023/04/06 00:34:41;;;;;;;24.92;2.08;;;;;;;;;;1047866;28;20470;-75
2023/04/06 00:35:12;;;;;;;7.18;1.85;;;;;;;;;;1048043;28;20482;-74
2023/04/06 00:35:42;;;;;;;13.73;3.85;;;;;;;;;;1046749;28;20027;-75
2023/04/06 00:36:13;;;;;;;1.27;1.00;;;;;;;;;;1047659;28;20103;-75
2023/04/06 00:36:44;;;;;;;6.40;2.53;;;;;;;;;;1047377;28;20020;-75
2023/04/06 00:37:14;;;;;;;2.67;1.67;;;;;;;;;;1046901;28;20029;-73
2023/04/06 00:37:46;;;;;;;3.90;2.95;;;;;;;;;;1047315;28;20487;-76
2023/04/06 00:38:17;;;;;;;9.73;1.73;;;;;;;;;;1046432;28;20024;-74
2023/04/06 00:38:47;;;;;;;4.43;1.23;;;;;;;;;;1047430;28;20012;-74
2023/04/06 00:39:18;;;;;;;3.42;1.63;;;;;;;;;;1047653;28;20147;-74
2023/04/06 00:39:48;;;;;;;4.07;2.67;;;;;;;;;;1047419;28;20790;-74
2023/04/06 00:40:19;;;;;;;6.10;2.22;;;;;;;;;;1047488;28;20028;-74
2023/04/06 00:40:50;;;;;;;5.10;1.27;;;;;;;;;;1047596;28;20024;-74
2023/04/06 00:41:20;;;;;;;3.88;1.88;;;;;;;;;;1046312;28;20383;-74
2023/04/06 00:41:52;;;;;;;3.70;2.15;;;;;;;;;;1045304;28;20020;-74
2023/04/06 00:42:25;;;;;;;5.40;1.90;;;;;;;;;;1043017;28;20036;-74
2023/04/06 00:42:56;;;;;;;41.22;3.55;;;;;;;;;;1043335;28;20070;-74
2023/04/06 00:43:26;;;;;;;4.47;2.72;;;;;;;;;;1046373;28;20118;-74
2023/04/06 00:43:57;;;;;;;9.27;3.17;;;;;;;;;;1047250;28;20039;-75
2023/04/06 00:44:27;;;;;;;7.28;2.60;;;;;;;;;;1047837;28;20017;-74
2023/04/06 00:44:59;;;;;;;9.98;3.72;;;;;;;;;;1047831;28;20115;-76
2023/04/06 00:45:30;;;;;;;7.95;1.70;;;;;;;;;;1046209;28;20032;-75
2023/04/06 00:46:00;;;;;;;35.40;3.63;;;;;;;;;;1047672;28;20063;-74
2023/04/06 00:46:31;;;;;;;2.50;2.10;;;;;;;;;;1043171;28;20552;-75
2023/04/06 00:47:02;;;;;;;10.52;3.30;;;;;;;;;;1042609;28;20028;-73
2023/04/06 00:47:33;;;;;;;6.80;2.97;;;;;;;;;;1047491;28;20024;-74
2023/04/06 00:48:03;;;;;;;3.75;2.25;;;;;;;;;;1047376;28;20082;-74
2023/04/06 00:48:34;;;;;;;1.60;1.23;;;;;;;;;;1047547;28;20025;-75
2023/04/06 00:49:04;;;;;;;4.13;2.70;;;;;;;;;;1047734;28;20020;-73
2023/04/06 00:49:35;;;;;;;1.38;1.25;;;;;;;;;;1047653;28;20017;-74
2023/04/06 00:50:06;;;;;;;9.18;1.95;;;;;;;;;;1047707;28;20032;-74
2023/04/06 00:50:36;;;;;;;4.80;1.90;;;;;;;;;;1047641;28;21498;-74
2023/04/06 00:51:07;;;;;;;9.65;2.65;;;;;;;;;;1048542;28;20021;-74
2023/04/06 00:51:37;;;;;;;4.47;1.52;;;;;;;;;;1048685;28;20031;-74
2023/04/06 00:52:08;;;;;;;12.60;1.85;;;;;;;;;;1048135;28;20021;-74
2023/04/06 00:52:38;;;;;;;12.25;2.25;;;;;;;;;;1048228;28;20028;-74
2023/04/06 00:53:09;;;;;;;5.28;2.58;;;;;;;;;;1048514;28;20027;-75
2023/04/06 00:53:40;;;;;;;0.88;0.88;;;;;;;;;;1048024;28;20035;-74
2023/04/06 00:54:10;;;;;;;21.77;2.70;;;;;;;;;;1048236;28;20486;-75
2023/04/06 00:54:41;;;;;;;3.60;1.95;;;;;;;;;;1047994;28;20027;-74
2023/04/06 00:55:11;;;;;;;29.15;3.17;;;;;;;;;;1048418;28;20021;-76
2023/04/06 00:55:42;;;;;;;12.02;1.45;;;;;;;;;;1047464;28;20088;-75
2023/04/06 00:56:13;;;;;;;3.30;2.78;;;;;;;;;;1048311;28;20038;-76
2023/04/06 00:56:43;;;;;;;1.60;1.10;;;;;;;;;;1047813;28;20024;-75
2023/04/06 00:57:14;;;;;;;3.15;1.75;;;;;;;;;;1048002;28;20020;-76
2023/04/06 00:57:45;;;;;;;3.72;2.42;;;;;;;;;;1045763;28;20028;-75
2023/04/06 00:58:15;;;;;;;6.55;3.75;;;;;;;;;;1046570;28;20021;-74
2023/04/06 00:58:46;;;;;;;11.50;1.10;;;;;;;;;;1047947;28;20032;-77
2023/04/06 00:59:17;;;;;;;3.30;3.00;;;;;;;;;;1048410;28;20101;-76
2023/04/06 00:59:47;;;;;;;2.38;1.65;;;;;;;;;;1048603;28;20111;-76
2023/04/06 01:00:18;;;;;;;1.95;1.55;;;;;;;;;;1048163;28;20525;-74
2023/04/06 01:00:48;;;;;;;5.38;1.98;;;;;;;;;;1043869;28;20029;-75
2023/04/06 01:01:19;;;;;;;1.60;1.35;;;;;;;;;;1040039;28;20491;-76
2023/04/06 01:01:50;;;;;;;1.50;1.08;;;;;;;;;;1039896;28;20029;-75
2023/04/06 01:02:20;;;;;;;2.85;1.17;;;;;;;;;;1043694;28;20361;-76
2023/04/06 01:02:51;;;;;;;8.77;1.90;;;;;;;;;;1048168;28;20031;-74
2023/04/06 01:03:22;;;;;;;2.90;1.67;;;;;;;;;;1048720;28;20487;-76
2023/04/06 01:03:53;;;;;;;16.90;2.95;;;;;;;;;;1048077;28;20115;-76
2023/04/06 01:04:24;;;;;;;1.13;1.08;;;;;;;;;;1048350;28;20028;-75
2023/04/06 01:04:55;;;;;;;12.45;1.42;;;;;;;;;;1047493;28;20115;-75
2023/04/06 01:05:25;;;;;;;1.77;1.67;;;;;;;;;;1047992;28;20046;-74
2023/04/06 01:05:58;;;;;;;12.00;1.92;;;;;;;;;;1048041;28;20031;-76
2023/04/06 01:06:28;;;;;;;6.50;3.15;;;;;;;;;;1048151;28;20094;-78
2023/04/06 01:06:59;;;;;;;10.02;2.20;;;;;;;;;;1048070;28;20463;-73
2023/04/06 01:07:30;;;;;;;2.28;1.23;;;;;;;;;;1047989;28;20523;-74
2023/04/06 01:08:00;;;;;;;1.35;1.00;;;;;;;;;;1048287;28;20399;-74
2023/04/06 01:08:31;;;;;;;1.55;1.27;;;;;;;;;;1043982;28;20045;-75
2023/04/06 01:09:02;;;;;;;10.45;2.50;;;;;;;;;;1043223;28;20484;-75
2023/04/06 01:09:32;;;;;;;2.92;2.22;;;;;;;;;;1044061;28;20052;-76
2023/04/06 01:10:04;;;;;;;0.68;0.68;;;;;;;;;;1043426;28;20468;-77
2023/04/06 01:10:34;;;;;;;1.98;0.90;;;;;;;;;;1044000;28;20082;-75
2023/04/06 01:11:05;;;;;;;11.90;3.50;;;;;;;;;;1045571;28;20450;-75
2023/04/06 01:11:35;;;;;;;1.85;1.13;;;;;;;;;;1046032;28;20484;-74
2023/04/06 01:12:06;;;;;;;13.15;1.42;;;;;;;;;;1045475;28;20488;-74
2023/04/06 01:12:38;;;;;;;7.53;1.40;;;;;;;;;;1047879;28;20016;-73
2023/04/06 01:13:09;;;;;;;2.83;2.08;;;;;;;;;;1048719;28;20471;-75
2023/04/06 01:13:39;;;;;;;15.05;2.78;;;;;;;;;;1047463;28;20053;-73
2023/04/06 01:14:10;;;;;;;1.20;1.10;;;;;;;;;;1047552;28;20476;-74
2023/04/06 01:14:40;;;;;;;2.38;1.25;;;;;;;;;;1048028;28;20025;-76
2023/04/06 01:15:12;;;;;;;20.90;1.80;;;;;;;;;;1045910;28;20448;-74
2023/04/06 01:15:43;;;;;;;0.80;0.80;;;;;;;;;;1047878;28;20027;-74
2023/04/06 01:16:13;;;;;;;5.90;1.92;;;;;;;;;;1047046;28;20043;-74
2023/04/06 01:16:44;;;;;;;8.85;2.83;;;;;;;;;;1047961;28;21190;-73
2023/04/06 01:17:14;;;;;;;4.38;2.70;;;;;;;;;;1047352;28;20020;-74
2023/04/06 01:17:45;;;;;;;2.10;1.85;;;;;;;;;;1046410;28;20105;-74
2023/04/06 01:18:15;;;;;;;2.60;1.35;;;;;;;;;;1045958;28;20055;-75
2023/04/06 01:18:46;;;;;;;6.75;1.20;;;;;;;;;;1045997;28;20052;-74
2023/04/06 01:19:17;;;;;;;4.38;2.28;;;;;;;;;;1044138;28;20523;-74
2023/04/06 01:19:49;;;;;;;1.40;1.08;;;;;;;;;;1047292;28;20035;-74
2023/04/06 01:20:19;;;;;;;1.40;1.10;;;;;;;;;;1046601;28;20116;-74
2023/04/06 01:20:50;;;;;;;2.85;1.48;;;;;;;;;;1046592;28;20043;-74
2023/04/06 01:21:20;;;;;;;8.90;1.13;;;;;;;;;;1047888;28;20028;-78
2023/04/06 01:21:53;;;;;;;1.27;0.95;;;;;;;;;;1047904;28;20166;-74
2023/04/06 01:22:24;;;;;;;0.63;0.63;;;;;;;;;;1046853;28;20040;-76
2023/04/06 01:22:55;;;;;;;1.50;1.38;;;;;;;;;;1047110;28;20139;-75
2023/04/06 01:23:25;;;;;;;2.42;2.25;;;;;;;;;;1047453;28;20020;-76
2023/04/06 01:23:56;;;;;;;2.17;2.08;;;;;;;;;;1047549;28;20024;-75
2023/04/06 01:24:26;;;;;;;3.63;1.83;;;;;;;;;;1047574;28;20024;-75
2023/04/06 01:24:57;;;;;;;1.05;1.00;;;;;;;;;;1048361;28;20060;-76
2023/04/06 01:25:28;;;;;;;1.75;1.45;;;;;;;;;;1047222;28;20034;-75
2023/04/06 01:25:58;;;;;;;1.35;0.90;;;;;;;;;;1042555;28;20116;-76
2023/04/06 01:26:29;;;;;;;10.30;3.15;;;;;;;;;;1042989;28;20083;-75
2023/04/06 01:27:00;;;;;;;2.55;1.65;;;;;;;;;;1042457;28;20033;-77
2023/04/06 01:27:31;;;;;;;5.55;3.28;;;;;;;;;;1042511;28;20021;-75
2023/04/06 01:28:02;;;;;;;1.10;0.70;;;;;;;;;;1043871;28;20025;-74
2023/04/06 01:28:32;;;;;;;1.23;1.13;;;;;;;;;;1044858;28;20519;-76
2023/04/06 01:29:03;;;;;;;4.03;1.70;;;;;;;;;;1044842;28;20033;-75
2023/04/06 01:29:33;;;;;;;1.63;1.27;;;;;;;;;;1044376;28;20021;-75
2023/04/06 01:30:05;;;;;;;1.40;0.80;;;;;;;;;;1043463;28;20436;-74
2023/04/06 01:30:37;;;;;;;2.65;1.67;;;;;;;;;;1041490;28;20035;-74
2023/04/06 01:31:08;;;;;;;3.95;1.83;;;;;;;;;;1042071;28;20040;-74
2023/04/06 01:31:39;;;;;;;3.05;1.83;;;;;;;;;;1044060;28;20125;-74
2023/04/06 01:32:09;;;;;;;0.57;0.57;;;;;;;;;;1044861;28;20365;-73
2023/04/06 01:32:40;;;;;;;2.30;1.52;;;;;;;;;;1047544;28;20449;-75
2023/04/06 01:33:11;;;;;;;3.85;1.38;;;;;;;;;;1046649;28;20184;-78
2023/04/06 01:33:42;;;;;;;2.33;1.65;;;;;;;;;;1041840;28;20585;-75
2023/04/06 01:34:12;;;;;;;0.98;0.93;;;;;;;;;;1043166;28;20025;-74
2023/04/06 01:34:43;;;;;;;1.13;1.08;;;;;;;;;;1043488;28;20035;-74
2023/04/06 01:35:14;;;;;;;3.33;2.78;;;;;;;;;;1042484;28;20770;-75
2023/04/06 01:35:44;;;;;;;3.05;1.05;;;;;;;;;;1041560;28;20031;-77
2023/04/06 01:36:15;;;;;;;1.88;1.63;;;;;;;;;;1041023;28;20120;-74
2023/04/06 01:36:45;;;;;;;3.70;1.55;;;;;;;;;;1041420;28;20021;-75
2023/04/06 01:37:16;;;;;;;3.08;2.05;;;;;;;;;;1041348;28;20082;-74
2023/04/06 01:37:47;;;;;;;1.67;1.52;;;;;;;;;;1045470;28;20025;-74
2023/04/06 01:38:17;;;;;;;1.58;1.48;;;;;;;;;;1044060;28;20101;-75
2023/04/06 01:38:48;;;;;;;1.48;1.30;;;;;;;;;;1043564;28;20689;-75
2023/04/06 01:39:19;;;;;;;4.97;0.85;;;;;;;;;;1046462;28;20032;-75
2023/04/06 01:39:50;;;;;;;2.30;2.10;;;;;;;;;;1045794;28;20905;-75
2023/04/06 01:40:20;;;;;;;5.80;2.50;;;;;;;;;;1047525;28;20747;-77
2023/04/06 01:40:51;;;;;;;1.67;1.15;;;;;;;;;;1046102;28;20028;-74
2023/04/06 01:41:22;;;;;;;13.90;1.58;;;;;;;;;;1047119;28;20039;-74
2023/04/06 01:41:52;;;;;;;1.63;0.90;;;;;;;;;;1046705;28;20028;-76
2023/04/06 01:42:23;;;;;;;5.28;4.15;;;;;;;;;;1041856;28;20027;-75
2023/04/06 01:42:53;;;;;;;0.52;0.50;;;;;;;;;;1045353;28;20385;-77
2023/04/06 01:43:24;;;;;;;3.42;1.10;;;;;;;;;;1045976;28;20028;-77
2023/04/06 01:43:55;;;;;;;0.65;0.65;;;;;;;;;;1046149;28;20531;-75
2023/04/06 01:44:25;;;;;;;0.63;0.57;;;;;;;;;;1046550;28;20054;-76
2023/04/06 01:44:56;;;;;;;0.57;0.55;;;;;;;;;;1046986;28;20119;-74
2023/04/06 01:45:26;;;;;;;0.95;0.95;;;;;;;;;;1045606;28;20020;-77
2023/04/06 01:45:57;;;;;;;1.88;1.38;;;;;;;;;;1045783;28;20232;-75
2023/04/06 01:46:27;;;;;;;7.13;2.70;;;;;;;;;;1046754;28;20035;-76
2023/04/06 01:46:58;;;;;;;4.03;1.98;;;;;;;;;;1047523;28;20280;-79
2023/04/06 01:47:29;;;;;;;1.13;0.85;;;;;;;;;;1046376;28;20028;-76
2023/04/06 01:47:59;;;;;;;3.55;0.90;;;;;;;;;;1046641;28;20578;-76
2023/04/06 01:48:30;;;;;;;0.70;0.70;;;;;;;;;;1047053;28;20122;-75
2023/04/06 01:49:00;;;;;;;3.75;1.20;;;;;;;;;;1047469;28;20024;-78
2023/04/06 01:49:31;;;;;;;1.83;1.63;;;;;;;;;;1044991;28;20545;-75
2023/04/06 01:50:05;;;;;;;1.65;1.23;;;;;;;;;;1045952;28;20642;-79
2023/04/06 01:50:36;;;;;;;0.43;0.43;;;;;;;;;;1042176;28;20172;-75
2023/04/06 01:51:06;;;;;;;1.55;1.23;;;;;;;;;;1042333;28;20025;-75
2023/04/06 01:51:37;;;;;;;2.10;1.75;;;;;;;;;;1044376;28;20021;-77
2023/04/06 01:52:07;;;;;;;1.73;1.63;;;;;;;;;;1045725;28;20031;-75
2023/04/06 01:52:38;;;;;;;0.40;0.40;;;;;;;;;;1046340;28;20028;-77
2023/04/06 01:53:09;;;;;;;7.40;1.25;;;;;;;;;;1047095;28;20078;-75
2023/04/06 01:53:39;;;;;;;1.23;1.15;;;;;;;;;;1044589;28;20124;-74
2023/04/06 01:54:10;;;;;;;2.10;2.00;;;;;;;;;;1046502;28;20033;-76
2023/04/06 01:54:40;;;;;;;1.15;0.82;;;;;;;;;;1044588;28;20024;-74
2023/04/06 01:55:11;;;;;;;2.30;2.00;;;;;;;;;;1045090;28;20020;-74
2023/04/06 01:55:41;;;;;;;3.90;0.85;;;;;;;;;;1045981;28;20024;-75
2023/04/06 01:56:12;;;;;;;16.77;1.10;;;;;;;;;;1046513;28;20028;-78
2023/04/06 01:56:42;;;;;;;3.22;1.02;;;;;;;;;;1047806;28;20032;-76
2023/04/06 01:57:13;;;;;;;3.08;0.73;;;;;;;;;;1047500;28;20107;-77
2023/04/06 01:57:44;;;;;;;14.55;1.67;;;;;;;;;;1047939;28;20016;-75
2023/04/06 01:58:14;;;;;;;7.15;1.77;;;;;;;;;;1046341;28;20480;-76
2023/04/06 01:58:45;;;;;;;4.93;1.02;;;;;;;;;;1047342;28;20020;-75
2023/04/06 01:59:16;;;;;;;5.22;1.50;;;;;;;;;;1041467;28;20133;-75
2023/04/06 01:59:46;;;;;;;12.90;3.65;;;;;;;;;;1041749;28;20558;-76
2023/04/06 02:00:17;;;;;;;1.50;0.57;;;;;;;;;;1042927;28;20025;-75
2023/04/06 02:00:47;;;;;;;1.52;1.35;;;;;;;;;;1039165;28;20025;-74
2023/04/06 02:01:18;;;;;;;2.88;1.60;;;;;;;;;;1038720;28;20772;-74
2023/04/06 02:01:48;;;;;;;2.17;1.25;;;;;;;;;;1041961;28;20020;-77
2023/04/06 02:02:19;;;;;;;3.28;1.95;;;;;;;;;;1038044;28;20390;-76
2023/04/06 02:02:50;;;;;;;0.57;0.57;;;;;;;;;;1042145;28;20108;-75
2023/04/06 02:03:20;;;;;;;3.70;2.42;;;;;;;;;;1042562;28;20542;-76
2023/04/06 02:03:51;;;;;;;3.97;1.25;;;;;;;;;;1045931;28;20028;-74
2023/04/06 02:04:21;;;;;;;0.70;0.45;;;;;;;;;;1045794;28;20032;-76
2023/04/06 02:04:52;;;;;;;2.05;1.55;;;;;;;;;;1046894;28;20020;-75
2023/04/06 02:05:23;;;;;;;3.83;2.15;;;;;;;;;;1045105;28;20020;-74
2023/04/06 02:05:53;;;;;;;1.73;1.63;;;;;;;;;;1046320;28;20013;-74
2023/04/06 02:06:25;;;;;;;2.97;1.45;;;;;;;;;;1047318;28;20467;-76
2023/04/06 02:07:05;;;;;;;6.40;2.70;;;;;;;;;;1046623;28;20029;-76
2023/04/06 02:07:35;;;;;;;4.57;3.45;;;;;;;;;;1041121;28;20025;-75
2023/04/06 02:08:07;;;;;;;1.55;1.23;;;;;;;;;;1040657;28;20410;-74
2023/04/06 02:08:38;;;;;;;3.08;1.10;;;;;;;;;;1045666;28;20047;-74
2023/04/06 02:09:08;;;;;;;2.78;1.17;;;;;;;;;;1044843;28;20107;-74
2023/04/06 02:09:39;;;;;;;1.00;0.80;;;;;;;;;;1047310;28;20019;-75
2023/04/06 02:10:13;;;;;;;9.75;2.40;;;;;;;;;;1046234;28;20025;-74
2023/04/06 02:10:43;;;;;;;2.10;1.25;;;;;;;;;;1046956;28;20646;-75
2023/04/06 02:11:14;;;;;;;0.93;0.93;;;;;;;;;;1045588;28;20025;-76
2023/04/06 02:11:45;;;;;;;1.00;0.85;;;;;;;;;;1040267;28;20024;-78
2023/04/06 02:12:15;;;;;;;1.45;1.13;;;;;;;;;;1039765;28;20072;-76
2023/04/06 02:12:48;;;;;;;2.28;1.42;;;;;;;;;;1038883;28;20025;-76
2023/04/06 02:13:19;;;;;;;3.00;2.33;;;;;;;;;;1039214;28;20420;-75
2023/04/06 02:13:49;;;;;;;1.17;0.93;;;;;;;;;;1039650;28;20146;-77
2023/04/06 02:14:20;;;;;;;2.28;1.23;;;;;;;;;;1042445;28;20029;-75
2023/04/06 02:14:51;;;;;;;16.67;4.78;;;;;;;;;;1039105;28;20037;-74
2023/04/06 02:15:21;;;;;;;2.83;1.77;;;;;;;;;;1038389;28;20650;-74
2023/04/06 02:15:52;;;;;;;2.00;1.45;;;;;;;;;;1043413;28;20083;-78
2023/04/06 02:16:25;;;;;;;16.10;1.38;;;;;;;;;;1042132;28;20033;-74
2023/04/06 02:16:56;;;;;;;6.32;3.35;;;;;;;;;;1045504;28;20606;-75
2023/04/06 02:17:26;;;;;;;4.80;2.30;;;;;;;;;;1046349;28;21043;-74
2023/04/06 02:17:57;;;;;;;3.55;1.42;;;;;;;;;;1044192;28;20088;-74
2023/04/06 02:18:28;;;;;;;0.45;0.45;;;;;;;;;;1043296;28;20029;-74
2023/04/06 02:18:58;;;;;;;1.00;0.77;;;;;;;;;;1045050;28;20041;-74
2023/04/06 02:19:29;;;;;;;1.27;1.17;;;;;;;;;;1046512;28;20119;-74
2023/04/06 02:19:59;;;;;;;0.20;0.20;;;;;;;;;;1046198;28;20074;-78
2023/04/06 02:20:30;;;;;;;1.80;1.65;;;;;;;;;;1046813;28;20024;-75
2023/04/06 02:21:01;;;;;;;1.98;1.63;;;;;;;;;;1045625;28;20021;-74
2023/04/06 02:21:32;;;;;;;2.42;2.17;;;;;;;;;;1043904;28;20024;-75
2023/04/06 02:22:02;;;;;;;5.00;1.33;;;;;;;;;;1044264;28;20032;-74
2023/04/06 02:22:33;;;;;;;2.20;0.47;;;;;;;;;;1041661;28;20040;-75
2023/04/06 02:23:03;;;;;;;1.25;1.10;;;;;;;;;;1043599;28;20024;-75
2023/04/06 02:23:34;;;;;;;1.67;0.80;;;;;;;;;;1041954;28;20021;-75
2023/04/06 02:24:05;;;;;;;5.00;2.08;;;;;;;;;;1043312;28;20021;-76
2023/04/06 02:24:36;;;;;;;3.70;3.40;;;;;;;;;;1046159;28;20028;-74
2023/04/06 02:25:07;;;;;;;2.90;2.70;;;;;;;;;;1046907;28;20464;-76
2023/04/06 02:25:38;;;;;;;0.80;0.73;;;;;;;;;;1044518;28;20029;-74
2023/04/06 02:26:08;;;;;;;2.95;1.42;;;;;;;;;;1045433;28;20027;-75
2023/04/06 02:26:39;;;;;;;2.35;1.55;;;;;;;;;;1047374;28;20024;-76
2023/04/06 02:27:10;;;;;;;3.33;2.15;;;;;;;;;;1046653;28;20606;-76
2023/04/06 02:27:41;;;;;;;3.00;1.95;;;;;;;;;;1046420;28;20469;-74
2023/04/06 02:28:11;;;;;;;4.05;1.02;;;;;;;;;;1046967;28;20028;-75
2023/04/06 02:28:42;;;;;;;1.00;0.93;;;;;;;;;;1046396;28;20036;-75
2023/04/06 02:29:12;;;;;;;3.03;1.13;;;;;;;;;;1046627;28;20122;-76
2023/04/06 02:29:43;;;;;;;1.55;0.95;;;;;;;;;;1045687;28;20040;-75
2023/04/06 02:30:14;;;;;;;26.40;2.65;;;;;;;;;;1045999;28;20032;-75
2023/04/06 02:30:45;;;;;;;4.35;1.48;;;;;;;;;;1046564;28;20500;-75
2023/04/06 02:31:15;;;;;;;2.47;1.20;;;;;;;;;;1046620;28;20031;-76
2023/04/06 02:31:48;;;;;;;1.52;0.95;;;;;;;;;;1044236;28;20039;-74
2023/04/06 02:32:18;;;;;;;1.88;1.00;;;;;;;;;;1045742;28;20568;-74
2023/04/06 02:32:49;;;;;;;16.42;2.35;;;;;;;;;;1045566;28;20041;-74
2023/04/06 02:33:24;;;;;;;1.80;0.77;;;;;;;;;;1045981;28;20025;-74
2023/04/06 02:33:55;;;;;;;2.22;2.03;;;;;;;;;;1045221;28;20028;-74
2023/04/06 02:34:26;;;;;;;1.52;1.42;;;;;;;;;;1045782;28;20024;-74
2023/04/06 02:34:56;;;;;;;5.00;1.88;;;;;;;;;;1045770;28;20020;-75
2023/04/06 02:35:57;;;;;;;55.77;28.33;;;;;;;;;;1051768;23;20066;-23
2023/04/06 02:36:28;;;;;;;22.80;14.98;;;;;;;;;;1037001;28;20083;-21
2023/04/06 02:36:58;;;;;;;14.70;10.32;;;;;;;;;;1041296;28;20041;-22
2023/04/06 02:37:29;;;;;;;10.27;6.85;;;;;;;;;;1039787;28;20587;-25
2023/04/06 02:37:59;;;;;;;6.65;3.30;;;;;;;;;;1042706;28;20668;-23
2023/04/06 02:38:30;;;;;;;4.95;2.83;;;;;;;;;;1041997;28;20025;-22
2023/04/06 02:39:00;;;;;;;3.33;3.05;;;;;;;;;;1040901;28;20350;-23
2023/04/06 02:39:31;;;;;;;19.02;2.53;;;;;;;;;;1040019;28;20408;-23
2023/04/06 02:40:02;;;;;;;2.10;1.77;;;;;;;;;;1041844;28;20439;-23
2023/04/06 02:40:34;;;;;;;6.22;2.80;;;;;;;;;;1041157;28;20047;-22
2023/04/06 02:41:06;;;;;;;1.90;1.75;;;;;;;;;;1041689;28;20071;-24
2023/04/06 02:41:37;;;;;;;14.00;1.48;;;;;;;;;;1041750;28;20037;-21
2023/04/06 02:42:08;;;;;;;16.08;2.88;;;;;;;;;;1042319;28;20075;-24
2023/04/06 02:42:39;;;;;;;2.22;1.45;;;;;;;;;;1040495;28;20083;-22
2023/04/06 02:43:10;;;;;;;4.30;3.90;;;;;;;;;;1039142;28;20024;-24
2023/04/06 02:43:41;;;;;;;8.10;5.65;;;;;;;;;;1039934;28;20665;-24
2023/04/06 02:44:12;;;;;;;8.30;4.32;;;;;;;;;;1042298;28;20391;-23
2023/04/06 02:44:43;;;;;;;5.60;3.90;;;;;;;;;;1042147;28;20031;-23
2023/04/06 02:45:14;;;;;;;5.32;4.80;;;;;;;;;;1042240;28;20071;-22
2023/04/06 02:45:47;;;;;;;7.05;5.72;;;;;;;;;;1045731;28;20471;-24
2023/04/06 02:46:17;;;;;;;13.05;4.90;;;;;;;;;;1044164;28;20032;-21
2023/04/06 02:46:48;;;;;;;11.93;7.07;;;;;;;;;;1037750;28;20116;-24
2023/04/06 02:47:18;;;;;;;6.75;6.10;;;;;;;;;;1039573;28;20068;-24
2023/04/06 02:47:49;;;;;;;8.73;7.90;;;;;;;;;;1039994;28;20067;-23
2023/04/06 02:48:20;;;;;;;33.20;6.00;;;;;;;;;;1040461;28;20440;-23
2023/04/06 02:48:52;;;;;;;8.55;5.22;;;;;;;;;;1038777;28;20455;-23
2023/04/06 02:49:24;;;;;;;11.75;6.03;;;;;;;;;;1037988;28;20035;-22
2023/04/06 02:49:58;;;;;;;12.70;8.68;;;;;;;;;;1035666;28;20190;-24
2023/04/06 02:50:31;;;;;;;12.02;6.72;;;;;;;;;;1036631;28;20648;-24
2023/04/06 02:51:01;;;;;;;8.30;7.15;;;;;;;;;;1037180;28;20166;-22
2023/04/06 02:51:37;;;;;;;13.05;6.30;;;;;;;;;;1038320;28;20478;-24
2023/04/06 02:52:11;;;;;;;8.52;6.28;;;;;;;;;;1036800;28;20030;-24
2023/04/06 02:52:43;;;;;;;7.70;6.93;;;;;;;;;;1035078;28;20077;-21
2023/04/06 02:53:14;;;;;;;15.10;6.70;;;;;;;;;;1037538;28;20488;-25
2023/04/06 02:53:44;;;;;;;8.07;7.30;;;;;;;;;;1037671;28;20033;-21
2023/04/06 02:54:17;;;;;;;5.07;4.32;;;;;;;;;;1040581;28;20025;-25
2023/04/06 02:54:48;;;;;;;14.00;5.82;;;;;;;;;;1040026;28;20505;-24
2023/04/06 02:55:19;;;;;;;5.35;3.47;;;;;;;;;;1039519;28;20027;-23
2023/04/06 02:55:50;;;;;;;14.35;7.68;;;;;;;;;;1038687;28;20076;-22
2023/04/06 02:56:21;;;;;;;11.45;4.95;;;;;;;;;;1040723;28;20059;-22
2023/04/06 02:56:53;;;;;;;9.00;3.55;;;;;;;;;;1039036;28;20057;-25
2023/04/06 02:57:24;;;;;;;13.88;3.72;;;;;;;;;;1038804;28;20029;-23
2023/04/06 02:57:57;;;;;;;7.60;5.15;;;;;;;;;;1039145;28;20029;-24
2023/04/06 02:58:29;;;;;;;22.23;4.63;;;;;;;;;;1034981;28;20030;-25
2023/04/06 02:59:00;;;;;;;11.63;6.03;;;;;;;;;;1036713;28;20029;-21
2023/04/06 02:59:31;;;;;;;11.15;4.82;;;;;;;;;;1039275;28;20025;-25
2023/04/06 03:00:02;;;;;;;6.40;2.10;;;;;;;;;;1037552;28;20099;-24
2023/04/06 03:00:34;;;;;;;0.95;0.90;;;;;;;;;;1037376;28;20017;-23
2023/04/06 03:01:06;;;;;;;21.02;4.35;;;;;;;;;;1038311;28;20489;-24
2023/04/06 03:01:37;;;;;;;2.72;1.67;;;;;;;;;;1037649;28;20033;-23
2023/04/06 03:02:10;;;;;;;4.22;3.75;;;;;;;;;;1040860;28;20453;-25
2023/04/06 03:02:44;;;;;;;3.55;3.13;;;;;;;;;;1037044;28;20052;-21
2023/04/06 03:03:15;;;;;;;3.70;2.35;;;;;;;;;;1035541;28;20159;-22
2023/04/06 03:03:47;;;;;;;6.93;3.55;;;;;;;;;;1036765;28;20025;-24
2023/04/06 03:04:22;;;;;;;7.93;3.58;;;;;;;;;;1033476;28;20030;-25
2023/04/06 03:04:54;;;;;;;9.82;4.93;;;;;;;;;;1036453;28;20102;-24
2023/04/06 03:05:26;;;;;;;3.58;3.33;;;;;;;;;;1039728;28;20118;-23
2023/04/06 03:06:02;;;;;;;4.65;2.85;;;;;;;;;;1035323;28;20025;-22
2023/04/06 03:06:37;;;;;;;2.70;2.05;;;;;;;;;;1035373;28;20147;-23
2023/04/06 03:07:09;;;;;;;3.50;2.55;;;;;;;;;;1031359;28;20033;-23
2023/04/06 03:07:41;;;;;;;6.00;1.85;;;;;;;;;;1034849;28;20464;-24